createdAt,value
2017-08-31T00:02:06.521Z,98436.58
2017-08-31T00:04:34.000Z,98443.47
2017-08-31T00:07:01.489Z,98436.61
2017-08-31T00:09:28.986Z,98435.44
2017-08-31T00:11:56.473Z,98423.67
2017-08-31T00:14:23.962Z,98429.77
2017-08-31T00:16:51.421Z,98422.13
2017-08-31T00:19:18.910Z,98416.50
2017-08-31T00:21:46.366Z,98411.90
2017-08-31T00:24:13.862Z,98416.59
2017-08-31T00:26:41.317Z,98423.19
2017-08-31T00:29:08.790Z,98432.90
2017-08-31T00:31:36.239Z,98427.88
2017-08-31T00:34:03.705Z,98426.45
2017-08-31T00:36:31.176Z,98421.06
2017-08-31T00:38:58.633Z,98416.25
2017-08-31T00:41:26.126Z,98431.01
2017-08-31T00:43:53.579Z,98431.64
2017-08-31T00:46:21.090Z,98433.31
2017-08-31T00:48:48.558Z,98439.19
2017-08-31T00:51:16.055Z,98429.21
2017-08-31T00:53:43.515Z,98433.52
2017-08-31T00:56:12.007Z,98417.66
2017-08-31T00:58:39.494Z,98426.69
2017-08-31T01:01:06.941Z,98426.76
2017-08-31T01:03:34.439Z,98429.86
2017-08-31T01:06:01.898Z,98432.52
2017-08-31T01:08:29.393Z,98430.50
2017-08-31T01:10:56.862Z,98434.92
2017-08-31T01:13:24.346Z,98429.77
2017-08-31T01:15:51.816Z,98431.67
2017-08-31T01:18:19.311Z,98432.57
2017-08-31T01:20:46.799Z,98442.22
2017-08-31T01:23:14.273Z,98435.14
2017-08-31T01:25:41.726Z,98435.55
2017-08-31T01:28:09.213Z,98434.09
2017-08-31T01:30:36.698Z,98440.52
2017-08-31T01:33:04.141Z,98436.48
2017-08-31T01:35:31.636Z,98429.09
2017-08-31T01:37:59.106Z,98428.31
2017-08-31T01:40:26.594Z,98411.52
2017-08-31T01:42:54.077Z,98413.22
2017-08-31T01:45:21.567Z,98416.33
2017-08-31T01:47:49.050Z,98413.74
2017-08-31T01:50:16.524Z,98430.41
2017-08-31T01:52:43.990Z,98430.58
2017-08-31T01:55:11.490Z,98424.28
2017-08-31T01:57:38.938Z,98423.34
2017-08-31T02:00:06.421Z,98431.98
2017-08-31T02:02:33.917Z,98434.94
2017-08-31T02:05:01.391Z,98442.02
2017-08-31T02:07:28.873Z,98441.87
2017-08-31T02:09:56.335Z,98432.69
2017-08-31T02:12:23.859Z,98421.30
2017-08-31T02:14:51.312Z,98435.90
2017-08-31T02:17:18.801Z,98448.53
2017-08-31T02:19:46.569Z,98447.47
2017-08-31T02:22:14.058Z,98448.67
2017-08-31T02:24:41.557Z,98453.24
2017-08-31T02:27:09.904Z,98447.80
2017-08-31T02:29:37.420Z,98447.38
2017-08-31T02:32:04.946Z,98423.53
2017-08-31T02:34:32.434Z,98439.78
2017-08-31T02:36:59.898Z,98375.42
2017-08-31T02:39:27.393Z,98444.38
2017-08-31T02:41:54.879Z,98447.83
2017-08-31T02:44:22.476Z,98444.08
2017-08-31T02:46:49.920Z,98432.89
2017-08-31T02:49:17.375Z,98411.64
2017-08-31T02:51:44.902Z,98405.88
2017-08-31T02:54:12.360Z,98402.81
2017-08-31T02:56:39.868Z,98407.05
2017-08-31T02:59:07.339Z,98414.78
2017-08-31T03:01:34.860Z,98431.85
2017-08-31T03:04:02.333Z,98446.81
2017-08-31T03:06:29.847Z,98448.35
2017-08-31T03:08:57.309Z,98446.22
2017-08-31T03:11:24.822Z,98447.68
2017-08-31T03:13:52.308Z,98432.44
2017-08-31T03:16:19.913Z,98441.38
2017-08-31T03:18:47.374Z,98450.34
2017-08-31T03:21:14.829Z,98428.32
2017-08-31T03:23:42.332Z,98424.33
2017-08-31T03:26:09.802Z,98424.09
2017-08-31T03:28:37.304Z,98417.81
2017-08-31T03:31:04.767Z,98415.00
2017-08-31T03:33:32.255Z,98422.75
2017-08-31T03:35:59.741Z,98369.70
2017-08-31T03:38:27.305Z,98407.86
2017-08-31T03:40:54.780Z,98414.98
2017-08-31T03:43:22.293Z,98425.87
2017-08-31T03:45:49.786Z,98415.78
2017-08-31T03:48:17.267Z,98425.34
2017-08-31T03:50:44.844Z,98424.31
2017-08-31T03:53:12.311Z,98411.91
2017-08-31T03:55:39.792Z,98420.05
2017-08-31T03:58:07.267Z,98426.44
2017-08-31T04:00:34.789Z,98383.55
2017-08-31T04:03:02.259Z,98429.86
2017-08-31T04:05:29.740Z,98442.61
2017-08-31T04:07:57.210Z,98439.91
2017-08-31T04:10:24.718Z,98442.72
2017-08-31T04:12:52.176Z,98438.88
2017-08-31T04:15:19.723Z,98443.88
2017-08-31T04:17:47.183Z,98439.28
2017-08-31T04:20:14.651Z,98450.35
2017-08-31T04:22:42.144Z,98451.11
2017-08-31T04:25:09.665Z,98415.84
2017-08-31T04:27:37.690Z,98451.02
2017-08-31T04:30:05.778Z,98447.81
2017-08-31T04:32:33.261Z,98456.74
2017-08-31T04:35:00.710Z,98455.72
2017-08-31T04:37:28.194Z,98461.52
2017-08-31T04:39:55.662Z,98458.88
2017-08-31T04:42:23.286Z,98456.66
2017-08-31T04:44:50.762Z,98466.81
2017-08-31T04:47:18.247Z,98470.25
2017-08-31T04:49:45.728Z,98475.28
2017-08-31T04:52:13.192Z,98474.20
2017-08-31T04:54:40.670Z,98471.06
2017-08-31T04:57:08.621Z,98468.84
2017-08-31T04:59:36.108Z,98470.19
2017-08-31T05:02:03.585Z,98481.66
2017-08-31T05:04:31.097Z,98472.88
2017-08-31T05:06:58.595Z,98474.53
2017-08-31T05:09:26.089Z,98482.25
2017-08-31T05:11:53.549Z,98472.12
2017-08-31T05:14:21.158Z,98493.08
2017-08-31T05:16:48.645Z,98506.72
2017-08-31T05:19:16.111Z,98503.72
2017-08-31T05:21:43.646Z,98504.22
2017-08-31T05:24:11.137Z,98499.27
2017-08-31T05:26:38.623Z,98506.77
2017-08-31T05:29:06.110Z,98512.52
2017-08-31T05:31:33.593Z,98527.42
2017-08-31T05:34:01.106Z,98525.45
2017-08-31T05:36:28.603Z,98527.76
2017-08-31T05:38:56.094Z,98531.15
2017-08-31T05:41:23.594Z,98542.12
2017-08-31T05:43:51.074Z,98538.05
2017-08-31T05:46:18.562Z,98543.36
2017-08-31T05:48:46.040Z,98550.67
2017-08-31T05:51:13.550Z,98556.62
2017-08-31T05:53:41.046Z,98540.64
2017-08-31T05:56:08.560Z,98545.94
2017-08-31T05:58:36.046Z,98538.84
2017-08-31T06:01:03.522Z,98553.66
2017-08-31T06:03:31.053Z,98545.28
2017-08-31T06:05:58.553Z,98560.45
2017-08-31T06:08:26.054Z,98555.24
2017-08-31T06:10:53.538Z,98564.74
2017-08-31T06:13:21.033Z,98571.16
2017-08-31T06:15:48.500Z,98573.13
2017-08-31T06:18:16.046Z,98571.72
2017-08-31T06:20:43.543Z,98545.87
2017-08-31T06:23:11.048Z,98552.53
2017-08-31T06:25:38.530Z,98573.58
2017-08-31T06:28:06.079Z,98575.42
2017-08-31T06:30:33.555Z,98583.59
2017-08-31T06:33:01.042Z,98603.09
2017-08-31T06:35:28.522Z,98601.25
2017-08-31T06:37:55.995Z,98611.22
2017-08-31T06:40:23.504Z,98617.66
2017-08-31T06:42:51.008Z,98622.87
2017-08-31T06:45:18.494Z,98628.00
2017-08-31T06:47:45.987Z,98628.45
2017-08-31T06:50:13.514Z,98639.73
2017-08-31T06:52:40.992Z,98644.30
2017-08-31T06:55:08.507Z,98648.80
2017-08-31T06:57:36.141Z,98650.08
2017-08-31T07:00:03.634Z,98654.61
2017-08-31T07:02:31.120Z,98665.64
2017-08-31T07:04:58.622Z,98660.19
2017-08-31T07:07:26.078Z,98673.45
2017-08-31T07:09:53.561Z,98679.76
2017-08-31T07:12:21.058Z,98686.32
2017-08-31T07:14:48.538Z,98701.67
2017-08-31T07:17:16.038Z,98707.88
2017-08-31T07:19:43.492Z,98704.45
2017-08-31T07:22:10.997Z,98719.81
2017-08-31T07:24:38.503Z,98730.80
2017-08-31T07:27:06.023Z,98731.88
2017-08-31T07:29:33.593Z,98740.52
2017-08-31T07:32:01.064Z,98747.02
2017-08-31T07:34:29.482Z,98743.83
2017-08-31T07:36:57.518Z,98746.36
2017-08-31T07:39:25.061Z,98759.09
2017-08-31T07:41:52.518Z,98749.89
2017-08-31T07:44:20.024Z,98742.91
2017-08-31T07:46:47.500Z,98750.92
2017-08-31T07:49:15.002Z,98753.58
2017-08-31T07:51:42.484Z,98761.22
2017-08-31T07:54:10.066Z,98768.53
2017-08-31T07:56:37.618Z,98767.45
2017-08-31T07:59:05.435Z,98764.72
2017-08-31T08:01:32.930Z,98782.73
2017-08-31T08:04:00.427Z,98789.40
2017-08-31T08:06:27.890Z,98793.37
2017-08-31T08:08:55.395Z,98811.38
2017-08-31T08:11:22.928Z,98798.80
2017-08-31T08:13:50.443Z,98797.82
2017-08-31T08:16:17.948Z,98796.66
2017-08-31T08:18:45.440Z,98801.05
2017-08-31T08:21:12.936Z,98810.75
2017-08-31T08:23:40.422Z,98822.89
2017-08-31T08:26:08.997Z,98791.30
2017-08-31T08:28:36.456Z,98819.57
2017-08-31T08:31:04.792Z,98777.23
2017-08-31T08:33:32.284Z,98839.00
2017-08-31T08:35:59.795Z,98839.34
2017-08-31T08:38:27.937Z,98837.37
2017-08-31T08:40:55.417Z,98846.38
2017-08-31T08:43:22.929Z,98849.21
2017-08-31T08:45:51.179Z,98856.25
2017-08-31T08:48:18.653Z,98858.87
2017-08-31T08:50:46.271Z,98854.64
2017-08-31T08:53:13.719Z,98867.91
2017-08-31T08:55:41.286Z,98863.81
2017-08-31T08:58:08.764Z,98870.03
2017-08-31T09:00:37.091Z,98876.16
2017-08-31T09:03:05.291Z,98869.83
2017-08-31T09:05:32.803Z,98895.89
2017-08-31T09:08:00.368Z,98896.58
2017-08-31T09:10:27.854Z,98895.30
2017-08-31T09:12:55.346Z,98903.31
2017-08-31T09:15:22.859Z,98911.00
2017-08-31T09:17:50.358Z,98916.45
2017-08-31T09:20:17.847Z,98922.61
2017-08-31T09:22:45.359Z,98927.26
2017-08-31T09:25:13.274Z,98928.56
2017-08-31T09:27:40.796Z,98932.32
2017-08-31T09:30:08.263Z,98942.78
2017-08-31T09:32:35.827Z,98942.30
2017-08-31T09:35:03.305Z,98944.98
2017-08-31T09:37:30.768Z,98950.70
2017-08-31T09:39:58.939Z,98957.89
2017-08-31T09:42:26.436Z,98962.02
2017-08-31T09:44:53.959Z,98957.80
2017-08-31T09:47:21.434Z,98952.55
2017-08-31T09:49:48.919Z,98967.30
2017-08-31T09:52:16.465Z,98959.19
2017-08-31T09:54:43.958Z,98962.09
2017-08-31T09:57:11.424Z,98972.91
2017-08-31T09:59:38.921Z,98980.48
2017-08-31T10:02:06.407Z,98978.02
2017-08-31T10:04:33.889Z,98984.40
2017-08-31T10:07:01.402Z,98994.25
2017-08-31T10:09:28.966Z,98987.50
2017-08-31T10:11:56.567Z,98998.23
2017-08-31T10:14:24.087Z,99003.69
2017-08-31T10:16:51.575Z,99005.09
2017-08-31T10:19:19.075Z,99001.76
2017-08-31T10:21:46.630Z,99011.17
2017-08-31T10:24:14.111Z,99012.91
2017-08-31T10:26:41.608Z,99013.55
2017-08-31T10:29:09.222Z,99012.01
2017-08-31T10:31:36.676Z,99007.77
2017-08-31T10:34:04.599Z,99007.52
2017-08-31T10:36:32.096Z,99023.69
2017-08-31T10:38:59.567Z,99024.78
2017-08-31T10:41:27.133Z,99004.95
2017-08-31T10:43:55.365Z,99044.20
2017-08-31T10:46:22.855Z,99057.63
2017-08-31T10:48:50.344Z,99057.20
2017-08-31T10:51:17.814Z,99058.00
2017-08-31T10:53:45.344Z,99062.48
2017-08-31T10:56:13.479Z,99084.17
2017-08-31T10:58:40.985Z,99077.88
2017-08-31T11:01:09.668Z,99093.05
2017-08-31T11:03:37.180Z,99095.91
2017-08-31T11:06:05.054Z,99094.58
2017-08-31T11:08:32.543Z,99092.58
2017-08-31T11:11:00.093Z,99099.50
2017-08-31T11:13:27.582Z,99103.56
2017-08-31T11:15:55.079Z,99113.91
2017-08-31T11:18:22.541Z,99108.28
2017-08-31T11:20:50.053Z,99094.29
2017-08-31T11:23:17.616Z,99103.75
2017-08-31T11:25:45.115Z,99109.11
2017-08-31T11:28:13.606Z,99103.94
2017-08-31T11:30:41.044Z,99104.93
2017-08-31T11:33:08.652Z,99095.63
2017-08-31T11:35:36.258Z,99102.53
2017-08-31T11:38:03.688Z,99104.48
2017-08-31T11:40:31.206Z,99108.48
2017-08-31T11:42:58.703Z,99103.03
2017-08-31T11:45:26.295Z,99111.20
2017-08-31T11:47:53.783Z,99104.82
2017-08-31T11:50:21.274Z,99118.59
2017-08-31T11:52:48.740Z,99120.08
2017-08-31T11:55:16.296Z,99122.50
2017-08-31T11:57:44.992Z,99132.62
2017-08-31T12:00:12.518Z,99130.35
2017-08-31T12:02:40.029Z,99137.28
2017-08-31T12:05:07.514Z,99145.50
2017-08-31T12:07:35.014Z,99130.34
2017-08-31T12:10:02.466Z,99150.70
2017-08-31T12:12:29.958Z,99151.20
2017-08-31T12:14:57.423Z,99151.19
2017-08-31T12:17:25.590Z,99172.71
2017-08-31T12:19:53.056Z,99172.08
2017-08-31T12:22:20.607Z,99178.69
2017-08-31T12:24:48.108Z,99173.83
2017-08-31T12:27:15.791Z,99169.35
2017-08-31T12:29:43.249Z,99156.25
2017-08-31T12:32:11.292Z,99164.69
2017-08-31T12:34:38.818Z,99165.25
2017-08-31T12:37:06.411Z,99163.45
2017-08-31T12:39:33.961Z,99169.54
2017-08-31T12:42:02.328Z,99160.47
2017-08-31T12:44:29.806Z,99167.10
2017-08-31T12:46:57.299Z,99171.57
2017-08-31T12:49:24.795Z,99167.67
2017-08-31T12:51:52.305Z,99173.00
2017-08-31T12:54:19.829Z,99165.87
2017-08-31T12:56:47.328Z,99108.56
2017-08-31T12:59:15.419Z,99178.45
2017-08-31T13:01:42.935Z,99200.94
2017-08-31T13:04:10.397Z,99186.73
2017-08-31T13:06:39.087Z,99171.02
2017-08-31T13:09:07.428Z,99183.20
2017-08-31T13:11:34.921Z,99190.82
2017-08-31T13:14:02.471Z,99190.54
2017-08-31T13:16:29.974Z,99190.90
2017-08-31T13:18:58.190Z,99184.87
2017-08-31T13:21:25.866Z,99177.81
2017-08-31T13:23:53.349Z,99183.11
2017-08-31T13:26:20.826Z,99183.39
2017-08-31T13:28:48.320Z,99198.84
2017-08-31T13:31:15.812Z,99185.34
2017-08-31T13:33:43.307Z,99195.64
2017-08-31T13:36:10.803Z,99197.11
2017-08-31T13:38:39.789Z,99204.09
2017-08-31T13:41:07.964Z,99193.04
2017-08-31T13:43:35.485Z,99196.31
2017-08-31T13:46:02.990Z,99197.84
2017-08-31T13:48:30.533Z,99193.48
2017-08-31T13:50:58.021Z,99203.52
2017-08-31T13:53:25.502Z,99209.97
2017-08-31T13:55:53.041Z,99178.19
2017-08-31T13:58:20.521Z,99210.85
2017-08-31T14:00:48.026Z,99197.67
2017-08-31T14:03:15.536Z,99197.78
2017-08-31T14:05:43.067Z,99199.34
2017-08-31T14:08:10.538Z,99213.30
2017-08-31T14:10:38.079Z,99205.11
2017-08-31T14:13:05.553Z,99202.67
2017-08-31T14:15:33.057Z,99208.19
2017-08-31T14:18:00.549Z,99197.53
2017-08-31T14:20:28.808Z,99192.94
2017-08-31T14:22:56.368Z,99202.02
2017-08-31T14:25:23.945Z,99205.84
2017-08-31T14:27:51.472Z,99210.63
2017-08-31T14:30:18.951Z,99208.11
2017-08-31T14:32:46.566Z,99230.58
2017-08-31T14:35:14.057Z,99237.70
2017-08-31T14:37:42.146Z,99241.34
2017-08-31T14:40:09.629Z,99241.47
2017-08-31T14:42:37.118Z,99248.43
2017-08-31T14:45:05.258Z,99260.91
2017-08-31T14:47:32.760Z,99252.53
2017-08-31T14:50:00.224Z,99257.55
2017-08-31T14:52:27.781Z,99259.01
2017-08-31T14:54:55.299Z,99257.39
2017-08-31T14:57:23.687Z,99256.98
2017-08-31T14:59:51.963Z,99268.17
2017-08-31T15:02:19.439Z,99271.45
2017-08-31T15:04:46.941Z,99246.50
2017-08-31T15:07:14.424Z,99265.65
2017-08-31T15:09:41.981Z,99276.37
2017-08-31T15:12:10.081Z,99273.55
2017-08-31T15:14:37.593Z,99271.19
2017-08-31T15:17:05.165Z,99281.38
2017-08-31T15:19:33.756Z,99279.97
2017-08-31T15:22:01.262Z,99283.55
2017-08-31T15:24:28.776Z,99281.27
2017-08-31T15:26:56.312Z,99278.79
2017-08-31T15:29:23.778Z,99284.17
2017-08-31T15:31:51.283Z,99283.38
2017-08-31T15:34:18.780Z,99285.23
2017-08-31T15:36:47.324Z,99273.48
2017-08-31T15:39:14.830Z,99294.72
2017-08-31T15:41:42.379Z,99288.67
2017-08-31T15:44:09.903Z,99288.56
2017-08-31T15:46:38.091Z,99289.41
2017-08-31T15:49:05.570Z,99297.73
2017-08-31T15:51:33.062Z,99295.34
2017-08-31T15:54:00.568Z,99300.22
2017-08-31T15:56:28.443Z,99296.90
2017-08-31T15:58:56.609Z,99301.96
2017-08-31T16:01:24.113Z,99303.06
2017-08-31T16:03:51.842Z,99298.06
2017-08-31T16:06:19.342Z,99285.05
2017-08-31T16:08:46.845Z,99295.75
2017-08-31T16:11:14.344Z,99297.70
2017-08-31T16:13:42.002Z,99284.39
2017-08-31T16:16:09.537Z,99286.21
2017-08-31T16:18:37.063Z,99289.84
2017-08-31T16:21:05.024Z,99286.52
2017-08-31T16:23:32.701Z,99284.63
2017-08-31T16:26:00.219Z,99281.74
2017-08-31T16:28:27.704Z,99272.08
2017-08-31T16:30:55.200Z,99272.72
2017-08-31T16:33:22.679Z,99273.84
2017-08-31T16:35:50.768Z,99273.66
2017-08-31T16:38:18.254Z,99270.81
2017-08-31T16:40:46.807Z,99275.64
2017-08-31T16:43:14.285Z,99275.39
2017-08-31T16:45:41.772Z,99283.05
2017-08-31T16:48:09.306Z,99287.86
2017-08-31T16:50:36.776Z,99284.62
2017-08-31T16:53:04.456Z,99290.76
2017-08-31T16:55:32.107Z,99283.08
2017-08-31T16:57:59.591Z,99290.89
2017-08-31T17:00:27.082Z,99296.08
2017-08-31T17:02:54.556Z,99295.21
2017-08-31T17:05:22.056Z,99293.20
2017-08-31T17:07:49.611Z,99294.23
2017-08-31T17:10:17.086Z,99291.27
2017-08-31T17:12:44.578Z,99289.46
2017-08-31T17:15:12.090Z,99291.64
2017-08-31T17:17:39.547Z,99290.53
2017-08-31T17:20:07.035Z,99295.51
2017-08-31T17:22:34.517Z,99301.38
2017-08-31T17:25:02.049Z,99300.11
2017-08-31T17:27:29.538Z,99299.84
2017-08-31T17:29:57.054Z,99287.27
2017-08-31T17:32:24.574Z,99308.37
2017-08-31T17:34:52.043Z,99295.63
2017-08-31T17:37:19.541Z,99314.28
2017-08-31T17:39:47.071Z,99324.39
2017-08-31T17:42:14.583Z,99320.98
2017-08-31T17:44:42.050Z,99321.20
2017-08-31T17:47:09.579Z,99314.09
2017-08-31T17:49:37.081Z,99334.72
2017-08-31T17:52:04.927Z,99343.20
2017-08-31T17:54:32.428Z,99333.09
2017-08-31T17:57:00.031Z,99317.41
2017-08-31T17:59:27.487Z,99316.11
2017-08-31T18:01:54.950Z,99317.53
2017-08-31T18:04:22.432Z,99327.58
2017-08-31T18:06:49.906Z,99334.77
2017-08-31T18:09:17.426Z,99335.55
2017-08-31T18:11:44.886Z,99337.81
2017-08-31T18:14:12.398Z,99340.54
2017-08-31T18:16:39.874Z,99346.47
2017-08-31T18:19:07.386Z,99345.28
2017-08-31T18:21:34.850Z,99343.64
2017-08-31T18:24:02.338Z,99352.75
2017-08-31T18:26:29.808Z,99362.97
2017-08-31T18:28:57.284Z,99364.27
2017-08-31T18:31:24.912Z,99367.77
2017-08-31T18:33:52.426Z,99364.56
2017-08-31T18:36:19.873Z,99361.57
2017-08-31T18:38:47.386Z,99371.41
2017-08-31T18:41:14.918Z,99372.56
2017-08-31T18:43:42.391Z,99370.55
2017-08-31T18:46:09.885Z,99373.27
2017-08-31T18:48:37.392Z,99371.22
2017-08-31T18:51:05.523Z,99079.41
2017-08-31T18:53:32.995Z,99372.27
2017-08-31T18:56:00.638Z,99379.48
2017-08-31T18:58:28.124Z,99380.73
2017-08-31T19:00:55.610Z,99379.05
2017-08-31T19:03:23.126Z,99382.40
2017-08-31T19:05:50.606Z,99384.37
2017-08-31T19:08:18.121Z,99391.26
2017-08-31T19:10:45.573Z,99391.70
2017-08-31T19:13:13.062Z,99411.72
2017-08-31T19:15:40.550Z,99412.16
2017-08-31T19:18:08.070Z,99417.84
2017-08-31T19:20:35.540Z,99418.41
2017-08-31T19:23:03.013Z,99420.05
2017-08-31T19:25:30.511Z,99414.93
2017-08-31T19:27:57.984Z,99410.16
2017-08-31T19:30:25.501Z,99387.02
2017-08-31T19:32:52.962Z,99409.48
2017-08-31T19:35:20.455Z,99405.94
2017-08-31T19:37:47.931Z,99402.62
2017-08-31T19:40:15.441Z,99395.27
2017-08-31T19:42:42.915Z,99396.55
2017-08-31T19:45:10.404Z,99389.76
2017-08-31T19:47:37.889Z,99381.16
2017-08-31T19:50:05.371Z,99387.80
2017-08-31T19:52:32.850Z,99394.58
2017-08-31T19:55:00.314Z,99390.38
2017-08-31T19:57:27.793Z,99392.98
2017-08-31T19:59:55.257Z,99394.11
2017-08-31T20:02:22.737Z,99404.05
2017-08-31T20:04:50.233Z,99406.12
2017-08-31T20:07:17.680Z,99408.95
2017-08-31T20:09:45.171Z,99402.85
2017-08-31T20:12:12.655Z,99347.05
2017-08-31T20:14:40.162Z,99388.73
2017-08-31T20:17:07.669Z,99381.70
2017-08-31T20:19:35.150Z,99386.75
2017-08-31T20:22:02.631Z,99388.81
2017-08-31T20:24:30.113Z,99394.50
2017-08-31T20:26:57.625Z,99397.08
2017-08-31T20:29:25.143Z,99404.67
2017-08-31T20:31:52.607Z,99403.18
2017-08-31T20:34:20.106Z,99403.33
2017-08-31T20:36:47.582Z,99415.58
2017-08-31T20:39:15.097Z,99412.25
2017-08-31T20:41:42.574Z,99418.80
2017-08-31T20:44:10.074Z,99419.75
2017-08-31T20:46:37.530Z,99418.97
2017-08-31T20:49:05.013Z,99414.13
2017-08-31T20:51:32.493Z,99409.74
2017-08-31T20:53:59.993Z,99413.15
2017-08-31T20:56:27.456Z,99391.68
2017-08-31T20:58:54.957Z,99411.36
2017-08-31T21:01:22.428Z,99409.91
2017-08-31T21:03:49.888Z,99408.07
2017-08-31T21:06:17.369Z,99409.91
2017-08-31T21:08:44.861Z,99407.22
2017-08-31T21:11:12.353Z,99412.44
2017-08-31T21:13:39.841Z,99411.39
2017-08-31T21:16:07.298Z,99414.23
2017-08-31T21:18:34.779Z,99420.59
2017-08-31T21:21:02.241Z,99435.28
2017-08-31T21:23:29.857Z,99443.56
2017-08-31T21:25:57.348Z,99440.25
2017-08-31T21:28:24.863Z,99449.52
2017-08-31T21:30:52.366Z,99439.32
2017-08-31T21:33:19.909Z,99439.20
2017-08-31T21:35:47.385Z,99446.42
2017-08-31T21:38:14.851Z,99450.30
2017-08-31T21:40:42.360Z,99456.36
2017-08-31T21:43:09.861Z,99457.48
2017-08-31T21:45:37.377Z,99453.75
2017-08-31T21:48:05.029Z,99463.47
2017-08-31T21:50:32.500Z,99467.66
2017-08-31T21:52:59.995Z,99473.73
2017-08-31T21:55:27.451Z,99462.38
2017-08-31T21:57:54.950Z,99455.84
2017-08-31T22:00:22.422Z,99455.06
2017-08-31T22:02:49.943Z,99460.42
2017-08-31T22:05:17.419Z,99452.78
2017-08-31T22:07:45.170Z,99465.04
2017-08-31T22:10:12.671Z,99460.36
2017-08-31T22:12:40.155Z,99470.56
2017-08-31T22:15:07.649Z,99468.48
2017-08-31T22:17:35.106Z,99467.87
2017-08-31T22:20:02.598Z,99464.41
2017-08-31T22:22:30.072Z,99470.05
2017-08-31T22:24:57.567Z,99473.12
2017-08-31T22:27:25.076Z,99468.23
2017-08-31T22:29:52.567Z,99458.95
2017-08-31T22:32:20.043Z,99457.80
2017-08-31T22:34:47.496Z,99460.63
2017-08-31T22:37:14.981Z,99464.94
2017-08-31T22:39:42.437Z,99462.83
2017-08-31T22:42:09.938Z,99462.50
2017-08-31T22:44:37.430Z,99454.89
2017-08-31T22:47:04.945Z,99428.58
2017-08-31T22:49:32.443Z,99434.17
2017-08-31T22:51:59.931Z,99438.75
2017-08-31T22:54:27.425Z,99446.89
2017-08-31T22:56:54.902Z,99448.22
2017-08-31T22:59:22.421Z,99452.97
2017-08-31T23:01:49.903Z,99448.12
2017-08-31T23:04:17.387Z,99451.77
2017-08-31T23:06:44.841Z,99451.16
2017-08-31T23:09:12.351Z,99449.96
2017-08-31T23:11:39.817Z,99452.99
2017-08-31T23:14:07.271Z,99454.39
2017-08-31T23:16:34.762Z,99451.05
2017-08-31T23:19:02.231Z,99448.38
2017-08-31T23:21:29.722Z,99455.29
2017-08-31T23:23:57.190Z,99450.02
2017-08-31T23:26:24.701Z,99461.56
2017-08-31T23:28:52.165Z,99457.96
2017-08-31T23:31:19.650Z,99455.58
2017-08-31T23:33:47.116Z,99465.13
2017-08-31T23:36:14.775Z,99462.22
2017-08-31T23:38:42.270Z,99457.49
2017-08-31T23:41:09.764Z,99449.97
2017-08-31T23:43:37.266Z,99448.95
2017-08-31T23:46:05.727Z,99449.18
2017-08-31T23:48:33.213Z,99450.91
2017-08-31T23:51:00.679Z,99452.75
2017-08-31T23:53:28.203Z,99453.11
2017-08-31T23:55:55.700Z,99454.47
2017-08-31T23:58:23.181Z,99447.47
